Time;durP1;ratioP1;P1;durP2;ratioP2;P2;SDS_P1;SDS_P2;PMS_P1;PMS_P2;Temp;Humidity;BMP_temperature;BMP_pressure;BME280_temperature;BME280_humidity;BME280_pressure;Samples;Min_cycle;Max_cycle;Signal;HPM_P1;HPM_P2
2022/06/19 00:00:33;;;;;;;4.55;4.13;;;;;;;;;;5052044;28;20563;-40
2022/06/19 00:02:58;;;;;;;6.72;4.63;;;;;;;;;;5051926;28;20044;-40
2022/06/19 00:05:24;;;;;;;9.10;4.60;;;;;;;;;;5052254;28;20075;-40
2022/06/19 00:07:49;;;;;;;6.43;4.57;;;;;;;;;;5052156;28;20029;-40
2022/06/19 00:10:15;;;;;;;4.20;3.80;;;;;;;;;;5052181;28;20035;-40
2022/06/19 00:12:40;;;;;;;7.90;4.32;;;;;;;;;;5051867;28;20542;-40
2022/06/19 00:15:06;;;;;;;4.22;3.83;;;;;;;;;;5050436;28;20132;-42
2022/06/19 00:17:32;;;;;;;5.50;4.18;;;;;;;;;;5051739;28;20025;-40
2022/06/19 00:19:57;;;;;;;6.55;4.45;;;;;;;;;;5051710;28;20036;-40
2022/06/19 00:22:22;;;;;;;6.95;3.72;;;;;;;;;;5051740;28;20053;-39
2022/06/19 00:24:48;;;;;;;6.38;4.45;;;;;;;;;;5051670;28;20083;-40
2022/06/19 00:27:13;;;;;;;5.47;4.65;;;;;;;;;;5051724;28;20125;-40
2022/06/19 00:29:38;;;;;;;5.30;4.80;;;;;;;;;;5051551;28;20025;-40
2022/06/19 00:32:07;;;;;;;4.82;4.35;;;;;;;;;;5051872;28;20025;-40
2022/06/19 00:34:33;;;;;;;7.72;4.55;;;;;;;;;;5051416;28;20052;-40
2022/06/19 00:37:01;;;;;;;5.63;4.40;;;;;;;;;;5051516;28;20033;-40
2022/06/19 00:39:26;;;;;;;4.90;4.50;;;;;;;;;;5051452;28;20020;-40
2022/06/19 00:41:52;;;;;;;4.25;3.85;;;;;;;;;;5051507;28;20037;-40
2022/06/19 00:44:17;;;;;;;5.57;4.05;;;;;;;;;;5051717;28;20029;-40
2022/06/19 00:46:43;;;;;;;4.57;3.95;;;;;;;;;;5051563;28;20053;-40
2022/06/19 00:49:13;;;;;;;4.63;4.22;;;;;;;;;;5050648;28;20179;-40
2022/06/19 00:51:38;;;;;;;8.10;3.78;;;;;;;;;;5051218;28;20029;-40
2022/06/19 00:54:06;;;;;;;5.57;4.45;;;;;;;;;;5051224;28;20025;-40
2022/06/19 00:56:32;;;;;;;5.03;3.92;;;;;;;;;;5051170;28;20036;-39
2022/06/19 00:58:57;;;;;;;4.97;3.95;;;;;;;;;;5051115;28;20544;-40
2022/06/19 01:01:23;;;;;;;5.80;4.45;;;;;;;;;;5051488;28;20036;-40
2022/06/19 01:04:07;;;;;;;6.32;4.53;;;;;;;;;;5051053;28;20052;-40
2022/06/19 01:06:33;;;;;;;5.45;4.00;;;;;;;;;;5051159;28;20115;-40
2022/06/19 01:08:59;;;;;;;6.38;3.67;;;;;;;;;;5051151;28;20146;-40
2022/06/19 01:11:25;;;;;;;4.00;3.60;;;;;;;;;;5050971;28;20032;-39
2022/06/19 01:13:51;;;;;;;4.70;4.30;;;;;;;;;;5050962;28;20037;-40
2022/06/19 01:16:17;;;;;;;4.53;3.60;;;;;;;;;;5051324;28;20045;-40
2022/06/19 01:18:42;;;;;;;5.63;3.90;;;;;;;;;;5049849;28;20493;-40
2022/06/19 01:21:22;;;;;;;4.65;3.55;;;;;;;;;;5051051;28;20025;-40
2022/06/19 01:24:06;;;;;;;6.47;3.92;;;;;;;;;;5049627;28;20699;-40
2022/06/19 01:26:36;;;;;;;5.32;4.57;;;;;;;;;;5050827;28;20017;-39
2022/06/19 01:29:01;;;;;;;3.80;3.40;;;;;;;;;;5050980;28;20491;-40
2022/06/19 01:31:26;;;;;;;4.00;3.40;;;;;;;;;;5049506;28;20029;-39
2022/06/19 01:33:53;;;;;;;3.45;3.15;;;;;;;;;;5049603;28;20319;-40
2022/06/19 01:36:20;;;;;;;4.57;3.58;;;;;;;;;;5051219;28;20032;-40
2022/06/19 01:38:48;;;;;;;4.07;3.38;;;;;;;;;;5049422;28;20036;-40
2022/06/19 01:41:16;;;;;;;11.02;4.35;;;;;;;;;;5050792;28;20024;-40
2022/06/19 01:43:42;;;;;;;4.35;3.63;;;;;;;;;;5050707;28;20074;-40
2022/06/19 01:46:07;;;;;;;5.70;3.42;;;;;;;;;;5050738;28;20472;-40
2022/06/19 01:48:33;;;;;;;4.93;3.53;;;;;;;;;;5049487;28;20024;-40
2022/06/19 01:51:00;;;;;;;3.92;3.47;;;;;;;;;;5050894;28;20383;-40
2022/06/19 01:53:36;;;;;;;4.85;3.88;;;;;;;;;;5050974;28;20021;-40
2022/06/19 01:56:03;;;;;;;4.82;3.58;;;;;;;;;;5050661;28;20602;-40
2022/06/19 01:58:31;;;;;;;6.22;3.72;;;;;;;;;;5050719;28;20387;-40
2022/06/19 02:00:56;;;;;;;4.57;3.42;;;;;;;;;;5053600;28;20045;-40
2022/06/19 02:03:29;;;;;;;5.00;3.53;;;;;;;;;;5054368;28;20146;-40
2022/06/19 02:05:55;;;;;;;4.10;3.40;;;;;;;;;;5054208;28;20032;-40
2022/06/19 02:08:20;;;;;;;3.38;3.08;;;;;;;;;;5054195;28;20028;-40
2022/06/19 02:10:47;;;;;;;3.67;3.22;;;;;;;;;;5054411;28;20033;-40
2022/06/19 02:13:13;;;;;;;3.30;3.00;;;;;;;;;;5054408;28;20021;-40
2022/06/19 02:15:40;;;;;;;4.18;3.45;;;;;;;;;;5053858;28;20059;-40
2022/06/19 02:18:07;;;;;;;5.43;3.30;;;;;;;;;;5054083;28;20378;-40
2022/06/19 02:20:33;;;;;;;3.40;3.10;;;;;;;;;;5053906;28;20033;-40
2022/06/19 02:23:00;;;;;;;4.95;3.40;;;;;;;;;;5053996;28;20071;-40
2022/06/19 02:25:25;;;;;;;4.53;3.65;;;;;;;;;;5054173;28;20021;-40
2022/06/19 02:27:52;;;;;;;4.10;3.60;;;;;;;;;;5053778;28;20146;-40
2022/06/19 02:30:17;;;;;;;4.45;2.90;;;;;;;;;;5052600;28;20029;-40
2022/06/19 02:32:45;;;;;;;5.28;2.92;;;;;;;;;;5053964;28;20051;-40
2022/06/19 02:35:16;;;;;;;7.97;3.00;;;;;;;;;;5054014;28;20036;-40
2022/06/19 02:37:45;;;;;;;3.25;2.95;;;;;;;;;;5053504;28;20032;-40
2022/06/19 02:40:10;;;;;;;3.88;2.97;;;;;;;;;;5053779;28;20025;-40
2022/06/19 02:42:40;;;;;;;5.82;3.50;;;;;;;;;;5053364;28;20036;-40
2022/06/19 02:45:16;;;;;;;3.08;2.83;;;;;;;;;;5053831;28;20432;-40
2022/06/19 02:47:41;;;;;;;4.60;3.47;;;;;;;;;;5053330;28;20407;-40
2022/06/19 02:50:08;;;;;;;4.15;2.95;;;;;;;;;;5053392;28;20024;-40
2022/06/19 02:52:34;;;;;;;4.15;3.00;;;;;;;;;;5053343;28;20047;-40
2022/06/19 02:55:00;;;;;;;3.65;2.28;;;;;;;;;;5053628;28;20457;-40
2022/06/19 02:57:26;;;;;;;4.60;4.10;;;;;;;;;;5053561;28;20094;-40
2022/06/19 02:59:52;;;;;;;3.05;2.78;;;;;;;;;;5053281;28;20112;-40
2022/06/19 03:02:17;;;;;;;6.30;3.15;;;;;;;;;;5051990;28;20036;-39
2022/06/19 03:04:45;;;;;;;3.20;2.83;;;;;;;;;;5053362;28;20035;-40
2022/06/19 03:07:10;;;;;;;2.97;2.55;;;;;;;;;;5053120;28;20032;-40
2022/06/19 03:09:36;;;;;;;3.17;2.88;;;;;;;;;;5053074;28;20012;-40
2022/06/19 03:12:01;;;;;;;3.72;2.85;;;;;;;;;;5052247;28;20086;-40
2022/06/19 03:14:27;;;;;;;7.60;3.20;;;;;;;;;;5052855;28;20045;-40
2022/06/19 03:16:53;;;;;;;9.48;3.17;;;;;;;;;;5053213;28;20033;-40
2022/06/19 03:19:18;;;;;;;5.97;3.38;;;;;;;;;;5051399;28;20194;-40
2022/06/19 03:21:44;;;;;;;4.25;3.85;;;;;;;;;;5052737;28;20017;-39
2022/06/19 03:24:10;;;;;;;4.05;2.80;;;;;;;;;;5053156;28;20648;-40
2022/06/19 03:26:35;;;;;;;3.05;2.75;;;;;;;;;;5052845;28;20040;-40
2022/06/19 03:29:01;;;;;;;3.55;2.78;;;;;;;;;;5051544;28;20017;-39
2022/06/19 03:31:27;;;;;;;3.50;2.97;;;;;;;;;;5052611;28;20231;-39
2022/06/19 03:33:53;;;;;;;3.47;2.80;;;;;;;;;;5052324;28;20032;-40
2022/06/19 03:36:19;;;;;;;2.65;2.45;;;;;;;;;;5052660;28;20037;-40
2022/06/19 03:38:44;;;;;;;3.53;3.22;;;;;;;;;;5052318;28;20036;-39
2022/06/19 03:41:10;;;;;;;3.55;3.20;;;;;;;;;;5052388;28;20033;-40
2022/06/19 03:43:35;;;;;;;4.82;3.15;;;;;;;;;;5052344;28;20067;-39
2022/06/19 03:46:02;;;;;;;3.67;2.55;;;;;;;;;;5052559;28;20033;-40
2022/06/19 03:48:27;;;;;;;6.55;2.35;;;;;;;;;;5052393;28;20040;-40
2022/06/19 03:50:53;;;;;;;2.92;2.63;;;;;;;;;;5052147;28;20437;-40
2022/06/19 03:53:18;;;;;;;4.95;2.50;;;;;;;;;;5052318;28;20043;-39
2022/06/19 03:55:44;;;;;;;2.60;2.22;;;;;;;;;;5052093;28;20086;-40
2022/06/19 03:58:10;;;;;;;2.72;2.47;;;;;;;;;;5052048;28;20105;-40
2022/06/19 04:00:35;;;;;;;5.43;2.83;;;;;;;;;;5052014;28;20063;-40
2022/06/19 04:03:01;;;;;;;4.63;2.95;;;;;;;;;;5052340;28;20438;-40
2022/06/19 04:05:26;;;;;;;2.83;2.47;;;;;;;;;;5052344;28;20114;-40
2022/06/19 04:07:52;;;;;;;6.82;2.53;;;;;;;;;;5051927;28;20025;-40
2022/06/19 04:10:18;;;;;;;4.47;3.15;;;;;;;;;;5052227;28;20048;-40
2022/06/19 04:12:44;;;;;;;2.92;2.63;;;;;;;;;;5051833;28;20020;-39
2022/06/19 04:15:10;;;;;;;3.33;2.67;;;;;;;;;;5051703;28;20395;-40
2022/06/19 04:17:36;;;;;;;2.78;2.28;;;;;;;;;;5051748;28;20048;-40
2022/06/19 04:20:02;;;;;;;5.90;2.90;;;;;;;;;;5051826;28;20490;-40
2022/06/19 04:22:28;;;;;;;4.25;2.80;;;;;;;;;;5051403;28;20025;-40
2022/06/19 04:24:53;;;;;;;2.97;2.67;;;;;;;;;;5051647;28;20063;-39
2022/06/19 04:27:19;;;;;;;2.67;2.47;;;;;;;;;;5051716;28;20048;-40
2022/06/19 04:29:44;;;;;;;4.47;2.50;;;;;;;;;;5051517;28;20116;-40
2022/06/19 04:32:09;;;;;;;3.60;3.20;;;;;;;;;;5051608;28;20074;-43
2022/06/19 04:34:35;;;;;;;5.68;2.83;;;;;;;;;;5051567;28;20378;-40
2022/06/19 04:37:00;;;;;;;5.20;2.45;;;;;;;;;;5051561;28;20045;-40
2022/06/19 04:39:25;;;;;;;5.65;2.78;;;;;;;;;;5051578;28;20539;-40
2022/06/19 04:41:51;;;;;;;2.67;2.33;;;;;;;;;;5051572;28;20209;-39
2022/06/19 04:44:17;;;;;;;3.88;2.60;;;;;;;;;;5051755;28;20036;-40
2022/06/19 04:46:43;;;;;;;3.45;2.47;;;;;;;;;;5051337;28;20447;-40
2022/06/19 04:49:09;;;;;;;2.75;2.38;;;;;;;;;;5051394;28;20109;-39
2022/06/19 04:51:34;;;;;;;3.38;2.75;;;;;;;;;;5051226;28;20101;-40
2022/06/19 04:54:00;;;;;;;2.83;2.50;;;;;;;;;;5051267;28;20455;-43
2022/06/19 04:56:25;;;;;;;2.58;2.38;;;;;;;;;;5051432;28;20109;-40
2022/06/19 04:58:50;;;;;;;3.10;2.72;;;;;;;;;;5051068;28;20048;-39
2022/06/19 05:01:21;;;;;;;5.28;2.30;;;;;;;;;;5051175;28;20017;-40
2022/06/19 05:03:47;;;;;;;2.70;2.50;;;;;;;;;;5051516;28;20071;-40
2022/06/19 05:06:12;;;;;;;4.25;2.55;;;;;;;;;;5051147;28;20049;-40
2022/06/19 05:08:37;;;;;;;4.13;2.63;;;;;;;;;;5051412;28;20104;-40
2022/06/19 05:11:03;;;;;;;2.33;2.13;;;;;;;;;;5051417;28;20301;-40
2022/06/19 05:13:29;;;;;;;3.78;2.88;;;;;;;;;;5051177;28;20036;-40
2022/06/19 05:16:02;;;;;;;2.42;2.22;;;;;;;;;;5051054;28;20391;-39
2022/06/19 05:18:27;;;;;;;2.83;2.35;;;;;;;;;;5050928;28;20099;-40
2022/06/19 05:20:56;;;;;;;2.72;2.10;;;;;;;;;;5050972;28;20021;-40
2022/06/19 05:23:21;;;;;;;2.58;2.33;;;;;;;;;;5051078;28;20067;-39
2022/06/19 05:25:47;;;;;;;11.43;3.10;;;;;;;;;;5050901;28;20044;-40
2022/06/19 05:28:12;;;;;;;2.30;2.10;;;;;;;;;;5051016;28;20029;-40
2022/06/19 05:30:37;;;;;;;6.22;3.10;;;;;;;;;;5050780;28;20082;-40
2022/06/19 05:33:03;;;;;;;2.40;2.20;;;;;;;;;;5050970;28;20479;-40
2022/06/19 05:35:28;;;;;;;2.20;2.00;;;;;;;;;;5053414;28;20031;-40
2022/06/19 05:37:54;;;;;;;4.78;2.70;;;;;;;;;;5053502;28;20040;-39
2022/06/19 05:40:20;;;;;;;2.83;2.20;;;;;;;;;;5054837;28;20399;-40
2022/06/19 05:42:47;;;;;;;2.38;2.17;;;;;;;;;;5054627;28;20025;-40
2022/06/19 05:45:12;;;;;;;5.90;2.85;;;;;;;;;;5053500;28;20477;-40
2022/06/19 05:47:40;;;;;;;4.28;2.75;;;;;;;;;;5054579;28;20066;-40
2022/06/19 05:50:06;;;;;;;2.63;2.20;;;;;;;;;;5054941;28;20546;-40
2022/06/19 05:52:32;;;;;;;5.80;2.78;;;;;;;;;;5054621;28;20025;-40
2022/06/19 05:55:00;;;;;;;3.50;2.53;;;;;;;;;;5054459;28;20096;-40
2022/06/19 05:57:25;;;;;;;2.45;2.25;;;;;;;;;;5054545;28;20654;-40
2022/06/19 05:59:51;;;;;;;5.00;2.13;;;;;;;;;;5054281;28;20033;-40
2022/06/19 06:02:21;;;;;;;2.63;2.42;;;;;;;;;;5054313;28;20111;-40
2022/06/19 06:04:47;;;;;;;2.30;2.08;;;;;;;;;;5054376;28;20467;-40
2022/06/19 06:07:12;;;;;;;3.47;2.72;;;;;;;;;;5054583;28;20079;-40
2022/06/19 06:09:38;;;;;;;3.15;2.15;;;;;;;;;;5054405;28;20408;-40
2022/06/19 06:12:04;;;;;;;3.85;2.25;;;;;;;;;;5054116;28;20527;-39
2022/06/19 06:14:30;;;;;;;6.93;2.90;;;;;;;;;;5054012;28;20056;-41
2022/06/19 06:16:55;;;;;;;4.47;2.40;;;;;;;;;;5054295;28;20032;-40
2022/06/19 06:19:21;;;;;;;2.38;2.17;;;;;;;;;;5054001;28;20041;-40
2022/06/19 06:21:47;;;;;;;2.28;2.08;;;;;;;;;;5053909;28;20075;-40
2022/06/19 06:24:14;;;;;;;4.72;2.17;;;;;;;;;;5054232;28;20021;-40
2022/06/19 06:26:39;;;;;;;2.58;2.17;;;;;;;;;;5054118;28;20029;-40
2022/06/19 06:29:05;;;;;;;2.70;2.33;;;;;;;;;;5053977;28;20032;-40
2022/06/19 06:31:30;;;;;;;3.78;2.25;;;;;;;;;;5053714;28;20029;-40
2022/06/19 06:33:56;;;;;;;4.72;2.30;;;;;;;;;;5053760;28;20021;-40
2022/06/19 06:36:23;;;;;;;3.35;2.08;;;;;;;;;;5053862;28;20032;-39
2022/06/19 06:38:49;;;;;;;2.53;1.80;;;;;;;;;;5053697;28;20459;-40
2022/06/19 06:41:14;;;;;;;3.35;2.08;;;;;;;;;;5053948;28;20044;-40
2022/06/19 06:43:41;;;;;;;2.45;2.25;;;;;;;;;;5053484;28;20451;-40
2022/06/19 06:46:08;;;;;;;3.38;2.20;;;;;;;;;;5053478;28;20374;-40
2022/06/19 06:48:34;;;;;;;5.07;2.33;;;;;;;;;;5053546;28;20027;-39
2022/06/19 06:51:00;;;;;;;2.25;2.05;;;;;;;;;;5053382;28;20040;-39
2022/06/19 06:53:25;;;;;;;4.03;2.40;;;;;;;;;;5053660;28;20028;-40
2022/06/19 06:55:55;;;;;;;3.03;2.30;;;;;;;;;;5053554;28;20107;-39
2022/06/19 06:58:21;;;;;;;2.97;2.38;;;;;;;;;;5053322;28;20123;-40
2022/06/19 07:00:46;;;;;;;7.72;2.65;;;;;;;;;;5051913;28;20129;-40
2022/06/19 07:03:12;;;;;;;1.80;1.70;;;;;;;;;;5053252;28;20044;-39
2022/06/19 07:05:37;;;;;;;2.53;1.65;;;;;;;;;;5053446;28;20119;-40
2022/06/19 07:08:03;;;;;;;2.00;1.85;;;;;;;;;;5053082;28;20017;-39
2022/06/19 07:10:29;;;;;;;2.95;1.83;;;;;;;;;;5053341;28;20075;-39
2022/06/19 07:12:54;;;;;;;2.38;2.17;;;;;;;;;;5052975;28;20021;-39
2022/06/19 07:15:20;;;;;;;2.80;1.80;;;;;;;;;;5052780;28;20049;-39
2022/06/19 07:17:46;;;;;;;2.22;2.05;;;;;;;;;;5052905;28;20029;-40
2022/06/19 07:20:12;;;;;;;1.58;1.48;;;;;;;;;;5052798;28;20048;-39
2022/06/19 07:22:38;;;;;;;2.55;1.75;;;;;;;;;;5052848;28;20021;-40
2022/06/19 07:25:04;;;;;;;5.03;2.33;;;;;;;;;;5051628;28;20115;-39
2022/06/19 07:27:30;;;;;;;1.85;1.73;;;;;;;;;;5052744;28;20455;-39
2022/06/19 07:29:56;;;;;;;3.08;1.90;;;;;;;;;;5051556;28;20044;-40
2022/06/19 07:32:21;;;;;;;5.15;2.45;;;;;;;;;;5052584;28;20852;-40
2022/06/19 07:34:47;;;;;;;4.32;2.08;;;;;;;;;;5052530;28;20036;-40
2022/06/19 07:37:13;;;;;;;3.10;1.67;;;;;;;;;;5052710;28;20531;-39
2022/06/19 07:39:39;;;;;;;3.58;1.77;;;;;;;;;;5052400;28;20474;-40
2022/06/19 07:42:08;;;;;;;2.28;1.92;;;;;;;;;;5052444;28;20017;-40
2022/06/19 07:44:43;;;;;;;3.85;2.08;;;;;;;;;;5052435;28;20032;-39
2022/06/19 07:50:13;;;;;;;2.00;1.80;;;;;;;;;;5052175;28;20467;-40
2022/06/19 07:52:49;;;;;;;3.15;1.60;;;;;;;;;;5052604;28;20025;-40
2022/06/19 07:55:19;;;;;;;2.10;1.80;;;;;;;;;;5052506;28;20040;-40
2022/06/19 07:57:45;;;;;;;1.75;1.65;;;;;;;;;;5051895;28;20037;-39
2022/06/19 08:00:16;;;;;;;2.95;1.60;;;;;;;;;;5052143;28;20047;-40
2022/06/19 08:02:46;;;;;;;2.80;2.03;;;;;;;;;;5051929;28;20040;-39
2022/06/19 08:05:12;;;;;;;2.75;2.10;;;;;;;;;;5052084;28;20029;-39
2022/06/19 08:07:39;;;;;;;4.25;2.05;;;;;;;;;;5052015;28;20112;-40
2022/06/19 08:10:05;;;;;;;3.05;2.55;;;;;;;;;;5051817;28;20478;-39
2022/06/19 08:12:30;;;;;;;4.15;3.20;;;;;;;;;;5052278;28;20086;-40
2022/06/19 08:14:56;;;;;;;2.55;2.35;;;;;;;;;;5051830;28;20403;-40
2022/06/19 08:17:22;;;;;;;4.18;1.98;;;;;;;;;;5050491;28;20040;-40
2022/06/19 08:19:47;;;;;;;2.80;1.95;;;;;;;;;;5050418;28;20502;-40
2022/06/19 08:22:13;;;;;;;3.03;2.40;;;;;;;;;;5051782;28;20108;-40
2022/06/19 08:24:39;;;;;;;3.33;2.42;;;;;;;;;;5051862;28;20071;-41
2022/06/19 08:27:05;;;;;;;2.33;1.90;;;;;;;;;;5051841;28;20523;-40
2022/06/19 08:29:31;;;;;;;4.93;1.95;;;;;;;;;;5051664;28;20740;-40
2022/06/19 08:31:57;;;;;;;5.80;2.40;;;;;;;;;;5051440;28;20029;-40
2022/06/19 08:34:26;;;;;;;5.22;2.53;;;;;;;;;;5051630;28;20039;-40
2022/06/19 08:36:51;;;;;;;2.53;2.33;;;;;;;;;;5051529;28;20031;-40
2022/06/19 08:39:17;;;;;;;3.05;2.20;;;;;;;;;;5051474;28;20033;-40
2022/06/19 08:41:47;;;;;;;8.18;2.58;;;;;;;;;;5051288;28;20036;-40
2022/06/19 08:44:27;;;;;;;5.47;2.80;;;;;;;;;;5051444;28;20387;-40
2022/06/19 08:46:56;;;;;;;2.90;2.17;;;;;;;;;;5051277;28;20036;-40
2022/06/19 08:49:40;;;;;;;4.32;2.38;;;;;;;;;;5051289;28;20472;-40
2022/06/19 08:52:15;;;;;;;5.72;2.88;;;;;;;;;;5051279;28;20524;-40
2022/06/19 08:54:48;;;;;;;2.60;2.40;;;;;;;;;;5051448;28;20025;-40
2022/06/19 08:57:40;;;;;;;3.95;2.30;;;;;;;;;;5050098;28;20120;-40
2022/06/19 09:00:05;;;;;;;3.80;2.28;;;;;;;;;;5049267;28;20045;-39
2022/06/19 09:02:41;;;;;;;3.05;2.22;;;;;;;;;;5051326;28;20027;-39
2022/06/19 09:08:00;;;;;;;7.35;2.60;;;;;;;;;;5051032;28;20037;-40
2022/06/19 09:10:28;;;;;;;3.38;2.53;;;;;;;;;;5053740;28;20131;-40
2022/06/19 09:13:20;;;;;;;4.00;2.40;;;;;;;;;;5055621;28;20110;-40
2022/06/19 09:15:54;;;;;;;3.05;2.28;;;;;;;;;;5053907;28;20571;-40
2022/06/19 09:18:42;;;;;;;9.38;2.80;;;;;;;;;;5055433;28;20028;-40
2022/06/19 09:21:24;;;;;;;3.35;2.55;;;;;;;;;;5055112;28;20434;-39
2022/06/19 09:23:58;;;;;;;2.58;2.05;;;;;;;;;;5055024;28;20025;-40
2022/06/19 09:26:31;;;;;;;5.82;3.10;;;;;;;;;;5055099;28;20410;-40
2022/06/19 09:29:02;;;;;;;2.30;2.00;;;;;;;;;;5054928;28;20532;-40
2022/06/19 09:31:43;;;;;;;2.40;2.20;;;;;;;;;;5055182;28;20039;-40
2022/06/19 09:34:23;;;;;;;3.17;2.22;;;;;;;;;;5055262;28;20044;-40
2022/06/19 09:36:52;;;;;;;2.20;2.00;;;;;;;;;;5054751;28;20040;-40
2022/06/19 09:39:17;;;;;;;2.70;2.50;;;;;;;;;;5054888;28;20066;-40
2022/06/19 09:41:43;;;;;;;2.67;2.47;;;;;;;;;;5054625;28;20467;-40
2022/06/19 09:44:46;;;;;;;4.97;2.75;;;;;;;;;;5054739;28;20111;-40
2022/06/19 09:47:35;;;;;;;3.08;2.60;;;;;;;;;;5052245;28;20471;-40
2022/06/19 09:50:06;;;;;;;3.25;2.45;;;;;;;;;;5018753;28;20029;-40
2022/06/19 09:52:37;;;;;;;8.05;2.40;;;;;;;;;;5053785;28;20098;-40
2022/06/19 09:55:25;;;;;;;2.60;2.40;;;;;;;;;;5054784;28;20029;-40
2022/06/19 09:57:58;;;;;;;2.42;2.22;;;;;;;;;;5053672;28;20052;-40
2022/06/19 10:00:24;;;;;;;;;;;;;;;;;;5054866;28;20040;-40
2022/06/19 10:03:17;;;;;;;2.75;2.50;;;;;;;;;;5054381;28;19905;-40
2022/06/19 10:05:42;;;;;;;3.30;2.58;;;;;;;;;;5054117;28;20037;-40
2022/06/19 10:08:20;;;;;;;2.88;2.50;;;;;;;;;;5054304;28;20033;-40
2022/06/19 10:10:51;;;;;;;2.63;2.42;;;;;;;;;;5054166;28;20081;-40
2022/06/19 10:13:20;;;;;;;3.78;2.33;;;;;;;;;;5054240;28;20033;-40
2022/06/19 10:15:51;;;;;;;2.28;2.08;;;;;;;;;;5054003;28;20044;-40
2022/06/19 10:18:20;;;;;;;4.65;2.78;;;;;;;;;;5053996;28;20483;-40
2022/06/19 10:20:54;;;;;;;2.80;2.53;;;;;;;;;;5053562;28;20033;-41
2022/06/19 10:23:21;;;;;;;2.88;2.53;;;;;;;;;;5054032;28;20089;-41
2022/06/19 10:25:59;;;;;;;5.85;3.10;;;;;;;;;;5053874;28;20045;-40
2022/06/19 10:28:34;;;;;;;3.67;2.50;;;;;;;;;;5053881;28;20609;-40
2022/06/19 10:31:09;;;;;;;3.10;2.47;;;;;;;;;;5053802;28;20055;-40
2022/06/19 10:33:47;;;;;;;6.70;2.65;;;;;;;;;;5053805;28;20479;-40
2022/06/19 10:36:26;;;;;;;2.42;2.22;;;;;;;;;;5053894;28;20060;-40
2022/06/19 10:39:05;;;;;;;3.00;2.70;;;;;;;;;;5053803;28;20132;-40
2022/06/19 10:42:04;;;;;;;2.83;2.63;;;;;;;;;;5053609;28;20112;-41
2022/06/19 10:44:48;;;;;;;4.10;2.33;;;;;;;;;;5053777;28;20494;-40
2022/06/19 10:47:20;;;;;;;5.35;2.70;;;;;;;;;;5053547;28;20033;-41
2022/06/19 10:49:46;;;;;;;2.88;2.47;;;;;;;;;;5052106;28;20170;-40
2022/06/19 10:52:12;;;;;;;3.58;2.72;;;;;;;;;;5053463;28;20466;-40
2022/06/19 10:54:54;;;;;;;5.22;2.55;;;;;;;;;;5053372;28;20045;-41
2022/06/19 10:57:23;;;;;;;3.50;2.83;;;;;;;;;;5053463;28;20025;-41
2022/06/19 10:59:50;;;;;;;3.47;3.17;;;;;;;;;;5053155;28;20087;-40
2022/06/19 11:05:06;;;;;;;5.68;3.40;;;;;;;;;;5053254;28;20093;-40
2022/06/19 11:07:34;;;;;;;5.60;3.42;;;;;;;;;;5052898;28;20052;-39
2022/06/19 11:10:04;;;;;;;3.30;2.75;;;;;;;;;;5052512;28;20039;-40
2022/06/19 11:12:39;;;;;;;5.78;2.95;;;;;;;;;;5053159;28;20017;-40
2022/06/19 11:15:06;;;;;;;4.18;3.40;;;;;;;;;;5052848;28;20106;-40
2022/06/19 11:17:42;;;;;;;3.63;3.33;;;;;;;;;;5053023;28;20033;-40
2022/06/19 11:20:28;;;;;;;2.95;2.75;;;;;;;;;;5052898;28;20052;-40
2022/06/19 11:23:14;;;;;;;2.95;2.75;;;;;;;;;;5052818;28;20084;-40
2022/06/19 11:25:42;;;;;;;3.78;3.00;;;;;;;;;;5051408;28;20033;-40
2022/06/19 11:28:10;;;;;;;3.45;2.67;;;;;;;;;;5052912;28;20029;-40
2022/06/19 11:30:45;;;;;;;3.22;2.88;;;;;;;;;;5052557;28;20052;-41
2022/06/19 11:33:18;;;;;;;4.13;2.78;;;;;;;;;;5051903;28;20036;-40
2022/06/19 11:35:56;;;;;;;3.90;3.05;;;;;;;;;;5052503;28;20040;-40
2022/06/19 11:38:32;;;;;;;3.70;2.92;;;;;;;;;;5052570;28;20044;-40
2022/06/19 11:40:58;;;;;;;6.85;3.60;;;;;;;;;;5052399;28;20064;-40
2022/06/19 11:43:31;;;;;;;5.85;3.10;;;;;;;;;;5052529;28;20469;-41
2022/06/19 11:46:06;;;;;;;5.50;3.47;;;;;;;;;;5052423;28;20021;-40
2022/06/19 11:48:32;;;;;;;3.75;2.75;;;;;;;;;;5052436;28;20040;-41
2022/06/19 11:50:58;;;;;;;3.65;3.35;;;;;;;;;;5052133;28;20017;-40
2022/06/19 11:53:29;;;;;;;4.43;3.03;;;;;;;;;;5052710;28;20033;-41
2022/06/19 11:56:13;;;;;;;4.32;2.90;;;;;;;;;;5052166;28;20029;-40
2022/06/19 11:58:40;;;;;;;13.32;3.20;;;;;;;;;;5052184;28;20086;-40
2022/06/19 12:01:12;;;;;;;5.85;4.15;;;;;;;;;;5052136;28;20021;-40
2022/06/19 12:03:38;;;;;;;;;;;;;;;;;;5052921;28;20037;-40
2022/06/19 12:06:08;;;;;;;6.00;3.40;;;;;;;;;;5051897;28;20378;-40
2022/06/19 12:08:39;;;;;;;4.15;3.75;;;;;;;;;;5051995;28;20044;-40
2022/06/19 12:11:08;;;;;;;3.20;2.88;;;;;;;;;;5051910;28;20032;-40
2022/06/19 12:13:42;;;;;;;6.10;2.45;;;;;;;;;;5051723;28;20044;-40
2022/06/19 12:16:16;;;;;;;3.70;3.13;;;;;;;;;;5051982;28;20597;-40
2022/06/19 12:18:42;;;;;;;3.92;3.58;;;;;;;;;;5051599;28;20040;-40
2022/06/19 12:21:13;;;;;;;4.50;3.05;;;;;;;;;;5051678;28;20053;-40
2022/06/19 12:23:41;;;;;;;3.78;3.47;;;;;;;;;;5051697;28;20021;-41
2022/06/19 12:26:11;;;;;;;4.68;3.42;;;;;;;;;;5051694;28;20048;-41
2022/06/19 12:28:57;;;;;;;3.65;3.10;;;;;;;;;;5051922;28;20395;-41
2022/06/19 12:31:28;;;;;;;5.85;3.70;;;;;;;;;;5050448;28;20118;-40
2022/06/19 12:34:25;;;;;;;3.63;3.30;;;;;;;;;;5051779;28;20112;-40
2022/06/19 12:36:55;;;;;;;9.07;3.95;;;;;;;;;;5045890;28;20041;-41
2022/06/19 12:39:23;;;;;;;7.22;4.10;;;;;;;;;;5051776;28;20124;-40
2022/06/19 12:41:57;;;;;;;6.55;3.38;;;;;;;;;;5051530;28;20055;-41
2022/06/19 12:44:30;;;;;;;3.72;3.28;;;;;;;;;;5050239;28;20032;-40
2022/06/19 12:47:15;;;;;;;5.15;2.97;;;;;;;;;;5051272;28;20045;-40
2022/06/19 12:49:48;;;;;;;3.83;3.17;;;;;;;;;;5051148;28;20468;-40
2022/06/19 12:52:20;;;;;;;6.18;3.33;;;;;;;;;;5051715;28;20116;-41
2022/06/19 12:55:04;;;;;;;5.88;3.80;;;;;;;;;;5051469;28;20150;-40
2022/06/19 12:57:33;;;;;;;7.20;3.30;;;;;;;;;;5051347;28;20025;-40
2022/06/19 13:00:14;;;;;;;3.95;2.97;;;;;;;;;;5051012;28;20373;-40
2022/06/19 13:02:40;;;;;;;5.03;3.03;;;;;;;;;;5049944;28;20033;-40
2022/06/19 13:05:13;;;;;;;3.42;3.13;;;;;;;;;;5051223;28;20525;-39
2022/06/19 13:07:47;;;;;;;5.30;2.88;;;;;;;;;;5051248;28;20032;-40
2022/06/19 13:10:31;;;;;;;5.70;3.88;;;;;;;;;;5051052;28;20025;-40
2022/06/19 13:13:29;;;;;;;5.63;3.00;;;;;;;;;;5051332;28;20029;-40
2022/06/19 13:15:56;;;;;;;3.05;2.72;;;;;;;;;;5050687;28;20133;-40
2022/06/19 13:18:32;;;;;;;3.83;3.47;;;;;;;;;;5051243;28;20033;-40
2022/06/19 13:21:05;;;;;;;3.35;3.03;;;;;;;;;;5049759;28;20115;-40
2022/06/19 13:23:30;;;;;;;;;;;;;;;;;;5051416;28;20112;-40
2022/06/19 13:26:08;;;;;;;5.82;3.65;;;;;;;;;;5050995;28;19983;-40
2022/06/19 13:28:34;;;;;;;4.63;3.00;;;;;;;;;;5051330;28;20029;-40
2022/06/19 13:31:11;;;;;;;6.75;3.42;;;;;;;;;;5051171;28;20457;-40
2022/06/19 13:33:55;;;;;;;4.35;2.88;;;;;;;;;;5051007;28;20037;-40
2022/06/19 13:36:29;;;;;;;7.25;3.40;;;;;;;;;;5051297;28;20086;-40
2022/06/19 13:39:14;;;;;;;5.32;3.13;;;;;;;;;;5050705;28;20040;-39
2022/06/19 13:41:49;;;;;;;3.05;2.83;;;;;;;;;;5050759;28;20460;-41
2022/06/19 13:44:38;;;;;;;3.05;2.55;;;;;;;;;;5050813;28;20033;-40
2022/06/19 13:47:19;;;;;;;3.35;3.03;;;;;;;;;;5050216;28;20040;-40
2022/06/19 13:49:51;;;;;;;6.28;2.95;;;;;;;;;;5050868;28;20036;-40
2022/06/19 13:52:25;;;;;;;2.97;2.70;;;;;;;;;;5051047;28;20025;-40
2022/06/19 13:55:02;;;;;;;3.85;3.10;;;;;;;;;;5049684;28;20364;-40
2022/06/19 13:57:28;;;;;;;4.32;2.90;;;;;;;;;;5054538;28;20033;-40
2022/06/19 13:59:53;;;;;;;3.28;2.85;;;;;;;;;;5054235;28;20032;-40
2022/06/19 14:02:41;;;;;;;4.28;2.70;;;;;;;;;;5054442;28;20036;-40
2022/06/19 14:05:28;;;;;;;2.83;2.60;;;;;;;;;;5054870;28;20040;-40
2022/06/19 14:07:59;;;;;;;5.18;3.58;;;;;;;;;;5052744;28;20037;-40
2022/06/19 14:10:25;;;;;;;4.10;2.63;;;;;;;;;;5054323;28;20029;-40
2022/06/19 14:12:51;;;;;;;4.13;2.75;;;;;;;;;;5054160;28;20017;-40
2022/06/19 14:15:36;;;;;;;5.57;3.00;;;;;;;;;;5054037;28;20060;-41
2022/06/19 14:18:17;;;;;;;4.50;3.03;;;;;;;;;;5052667;28;20036;-40
2022/06/19 14:20:49;;;;;;;4.10;2.58;;;;;;;;;;5053976;28;20041;-40
2022/06/19 14:23:25;;;;;;;2.40;2.17;;;;;;;;;;5054187;28;20021;-40
2022/06/19 14:26:01;;;;;;;2.70;2.50;;;;;;;;;;5053898;28;20033;-40
2022/06/19 14:28:41;;;;;;;3.10;2.72;;;;;;;;;;5053820;28;20032;-40
2022/06/19 14:31:09;;;;;;;3.63;2.50;;;;;;;;;;5053895;28;20040;-40
2022/06/19 14:33:34;;;;;;;4.10;2.40;;;;;;;;;;5053840;28;20154;-40
2022/06/19 14:36:23;;;;;;;3.25;2.40;;;;;;;;;;5053709;28;20116;-40
2022/06/19 14:39:02;;;;;;;2.78;2.25;;;;;;;;;;5053136;28;20055;-40
2022/06/19 14:41:27;;;;;;;2.45;2.00;;;;;;;;;;5053707;28;20025;-40
2022/06/19 14:43:59;;;;;;;2.30;2.10;;;;;;;;;;5053410;28;20384;-41
2022/06/19 14:46:30;;;;;;;2.00;1.70;;;;;;;;;;5053688;28;20037;-40
2022/06/19 14:49:20;;;;;;;5.20;2.80;;;;;;;;;;5053682;28;20637;-40
2022/06/19 14:52:04;;;;;;;2.78;2.10;;;;;;;;;;5053506;28;20625;-40
2022/06/19 14:54:40;;;;;;;3.03;1.80;;;;;;;;;;5053829;28;20029;-40
2022/06/19 14:57:06;;;;;;;6.00;2.10;;;;;;;;;;5051961;28;20039;-40
2022/06/19 14:59:34;;;;;;;2.13;1.92;;;;;;;;;;5053279;28;20028;-40
2022/06/19 15:02:00;;;;;;;2.25;2.05;;;;;;;;;;5053506;28;20072;-40
2022/06/19 15:04:27;;;;;;;2.42;2.22;;;;;;;;;;5053375;28;20013;-40
2022/06/19 15:06:56;;;;;;;3.22;2.03;;;;;;;;;;5052130;28;20032;-40